Ashikuraji, Japan

11:02 AM JST on June 25, 2017 (GMT +0900)
Toyama | | Change Station

Elev 89 ft 36.65 °N, 137.18 °E | Updated 52 minutes ago

Mostly Cloudy
Mostly Cloudy
70 °F
Feels Like 70 °F
N
2
Wind Variable Wind from Variable

Today
High -- | Low -- °F
--% Chance of Precip.
Yesterday
High -- | Low -- °F
Precip. -- in
Pressure 29.56 in
Visibility 3.1 miles
Clouds Few 400 ft
Mostly Cloudy 1000 ft
Mostly Cloudy 5000 ft
Dew Point 68 °F
Humidity 94%
Rainfall 0.00 in
Snow Depth Not available.
4:33 AM 7:12 PM
New Moon, 1% visible
SPECI RJNT 250110Z VRB02KT 5000 -RA BR FEW004 BKN010 BKN050 21/20 Q1001 RMK 2ST004 5ST010 7SC050 A2957
Pressure 29.56 in
Visibility 3.1 miles
Clouds Few 400 ft
Mostly Cloudy 1000 ft
Mostly Cloudy 5000 ft
Dew Point 68 °F
Humidity 94%
Rainfall 0.00 in
Snow Depth Not available.
4:33 AM 7:12 PM
New Moon, 1% visible
SPECI RJNT 250110Z VRB02KT 5000 -RA BR FEW004 BKN010 BKN050 21/20 Q1001 RMK 2ST004 5ST010 7SC050 A2957

Get Severe Weather Alerts

Thanks for signing up!

Be on the lookout for a verification email in your inbox.

You'll start receiving the daily forecast at 6 AM.

×

10-Day Weather Forecast

No radar image for this location.
×

Almanac

Astronomy

Jun. 25, 2017 Rise Set
Actual Time
Civil Twilight
Nautical Twilight
Astronomical Twilight
Moon
Length of Visible Light
Length of Day
Tomorrow will be .
, % of the Moon is Illuminated

Today's Extremes

Country Highs Country Lows

Community

WunderPhotos

Category 6

Welcome to Category 6. This is the collective home for Weather Underground's featured writeups by Dr. Jeff Masters (right), Bob Henson (left), Chris Burt, and other regular contributors.

Nearby

Air Quality

  Air Quality AQ Index Pollutant
Not available.

Snow Depth

Station Depth Elevation

Earthquake Activity

City Distance Mag. Time & Date
Minimum magnitude displayed is 2.5.

Coastal Water Temperatures

Place Temperature

Stations

Nearby Weather Stations

Station Location Temp. Windchill Dew Point Humidity Wind Precip. Elev Updated Type